Time;durP1;ratioP1;P1;durP2;ratioP2;P2;SDS_P1;SDS_P2;PMS_P1;PMS_P2;Temp;Humidity;BMP_temperature;BMP_pressure;BME280_temperature;BME280_humidity;BME280_pressure;Samples;Min_cycle;Max_cycle;Signal;HPM_P1;HPM_P2
2022/03/06 00:00:17;;;;;;;1.95;1.85;;;;;;;-0.79;100.00;102068.75;5029179;28;20053;-77
2022/03/06 00:02:50;;;;;;;2.00;1.90;;;;;;;-0.81;100.00;102065.44;5022078;28;20054;-78
2022/03/06 00:05:25;;;;;;;2.08;1.98;;;;;;;-0.76;100.00;102062.25;5026540;28;20045;-78
2022/03/06 00:07:56;;;;;;;1.95;1.85;;;;;;;-0.77;100.00;102064.09;5028906;28;20049;-78
2022/03/06 00:10:24;;;;;;;2.08;1.98;;;;;;;-0.77;100.00;102068.63;5026610;28;20055;-77
2022/03/06 00:12:57;;;;;;;2.20;2.10;;;;;;;-0.78;100.00;102069.63;5021345;28;20058;-77
2022/03/06 00:15:30;;;;;;;2.67;2.50;;;;;;;-0.79;100.00;102067.94;5039002;28;20049;-77
2022/03/06 00:18:04;;;;;;;2.53;2.42;;;;;;;-0.80;100.00;102072.47;5018039;28;20117;-77
2022/03/06 00:20:38;;;;;;;2.78;2.58;;;;;;;-0.82;100.00;102061.09;5028858;28;20049;-77
2022/03/06 00:23:06;;;;;;;2.50;2.40;;;;;;;-0.80;100.00;102074.28;5021617;28;20053;-77
2022/03/06 00:25:39;;;;;;;3.10;2.90;;;;;;;-0.88;100.00;102073.31;5027745;28;20069;-77
2022/03/06 00:28:13;;;;;;;2.95;2.75;;;;;;;-0.89;100.00;102066.28;5031854;28;20053;-77
2022/03/06 00:30:42;;;;;;;2.88;2.67;;;;;;;-0.84;100.00;102071.13;5024777;28;20732;-77
2022/03/06 00:33:16;;;;;;;2.92;2.72;;;;;;;-0.88;100.00;102064.47;5025808;28;20057;-77
2022/03/06 00:35:51;;;;;;;3.03;2.83;;;;;;;-0.83;100.00;102066.63;5026363;28;20041;-78
2022/03/06 00:38:24;;;;;;;3.60;3.40;;;;;;;-0.80;100.00;102068.94;5025769;28;20057;-77
2022/03/06 00:40:57;;;;;;;3.63;3.42;;;;;;;-0.82;100.00;102057.59;5025682;28;20421;-77
2022/03/06 00:43:25;;;;;;;3.70;3.50;;;;;;;-0.91;100.00;102052.25;5032297;28;20045;-78
2022/03/06 00:45:58;;;;;;;3.40;3.20;;;;;;;-0.83;100.00;102056.75;5030633;28;20046;-78
2022/03/06 00:48:32;;;;;;;3.50;3.30;;;;;;;-0.85;100.00;102058.78;5029720;28;20038;-78
2022/03/06 00:51:02;;;;;;;3.78;3.58;;;;;;;-0.80;100.00;102059.09;5025346;28;20421;-79
2022/03/06 00:53:35;;;;;;;4.00;3.70;;;;;;;-0.82;100.00;102069.13;5029361;28;20037;-78
2022/03/06 00:56:09;;;;;;;3.78;3.58;;;;;;;-0.88;100.00;102048.41;5023132;28;20049;-80
2022/03/06 00:58:38;;;;;;;4.07;3.78;;;;;;;-0.88;100.00;102056.44;5028199;28;20053;-77
2022/03/06 01:01:11;;;;;;;3.88;3.60;;;;;;;-1.12;100.00;102027.91;5024503;28;20061;-77
2022/03/06 01:03:45;;;;;;;3.70;3.50;;;;;;;-0.90;100.00;102059.28;5025491;28;20496;-77
2022/03/06 01:06:19;;;;;;;4.35;4.05;;;;;;;-0.88;100.00;102070.63;5022106;28;20068;-79
2022/03/06 01:08:52;;;;;;;4.68;4.38;;;;;;;-0.90;100.00;102066.44;5025093;28;20049;-76
2022/03/06 01:11:26;;;;;;;4.45;4.15;;;;;;;-0.99;100.00;102054.94;5027545;28;20042;-78
2022/03/06 01:13:59;;;;;;;4.38;4.07;;;;;;;-0.94;100.00;102070.47;5039398;28;20047;-77
2022/03/06 01:16:32;;;;;;;4.40;4.10;;;;;;;-0.89;100.00;102065.47;5022671;28;20053;-77
2022/03/06 01:19:05;;;;;;;4.43;4.13;;;;;;;-0.84;100.00;102079.16;5017649;28;20046;-78
2022/03/06 01:21:39;;;;;;;4.95;4.65;;;;;;;-0.84;100.00;102073.81;5033086;28;20060;-78
2022/03/06 01:24:13;;;;;;;4.65;4.35;;;;;;;-0.86;100.00;102067.78;5028142;28;20061;-77
2022/03/06 01:26:46;;;;;;;5.05;4.72;;;;;;;-0.85;100.00;102082.81;5027377;28;20071;-77
2022/03/06 01:29:22;;;;;;;4.60;4.30;;;;;;;-0.85;100.00;102080.16;5039706;28;20056;-77
2022/03/06 01:31:55;;;;;;;5.18;4.80;;;;;;;-0.89;100.00;102074.28;5032676;28;20075;-77
2022/03/06 01:34:28;;;;;;;4.88;4.57;;;;;;;-0.90;100.00;102078.00;5029192;28;20053;-78
2022/03/06 01:36:58;;;;;;;5.47;5.07;;;;;;;-0.84;100.00;102068.47;5021095;28;20061;-78
2022/03/06 01:39:31;;;;;;;5.30;4.90;;;;;;;-0.84;100.00;102072.94;5029381;28;20493;-78
2022/03/06 01:41:59;;;;;;;5.60;5.20;;;;;;;-0.91;100.00;102072.78;5031398;28;20053;-77
2022/03/06 01:44:33;;;;;;;5.28;4.88;;;;;;;-0.98;100.00;102075.34;5024987;28;20405;-78
2022/03/06 01:47:06;;;;;;;4.80;4.50;;;;;;;-0.99;100.00;102070.16;5022161;28;20050;-77
2022/03/06 01:49:39;;;;;;;5.40;5.00;;;;;;;-1.01;100.00;102078.31;5021007;28;20037;-78
2022/03/06 01:52:14;;;;;;;4.57;4.28;;;;;;;-1.01;100.00;102078.31;5020226;28;20052;-77
2022/03/06 01:54:47;;;;;;;4.63;4.32;;;;;;;-1.01;100.00;102075.66;5023696;28;20049;-79
2022/03/06 01:57:20;;;;;;;4.57;4.28;;;;;;;-1.05;100.00;102072.50;5039242;28;20040;-77
2022/03/06 01:59:49;;;;;;;4.28;3.97;;;;;;;-1.06;100.00;102084.19;5025993;28;20042;-77
2022/03/06 02:02:22;;;;;;;4.00;3.70;;;;;;;-1.06;100.00;102072.66;5025236;28;20410;-78
2022/03/06 02:04:55;;;;;;;4.20;3.90;;;;;;;-1.07;100.00;102068.31;5026224;28;20041;-77
2022/03/06 02:07:24;;;;;;;4.82;4.53;;;;;;;-1.00;100.00;102074.66;5025965;28;20041;-78
2022/03/06 02:09:58;;;;;;;4.38;4.07;;;;;;;-1.00;100.00;102080.00;5027580;28;20470;-77
2022/03/06 02:12:32;;;;;;;4.18;3.88;;;;;;;-1.04;100.00;102067.97;5026606;28;20050;-77
2022/03/06 02:15:08;;;;;;;4.45;4.15;;;;;;;-1.05;100.00;102069.81;5028731;28;20068;-77
2022/03/06 02:17:41;;;;;;;4.45;4.15;;;;;;;-1.08;100.00;102072.84;5026222;28;20487;-78
2022/03/06 02:20:16;;;;;;;5.05;4.72;;;;;;;-1.12;100.00;102070.66;5029854;28;20490;-78
2022/03/06 02:22:53;;;;;;;4.03;3.72;;;;;;;-1.06;100.00;102076.16;5024674;28;20067;-77
2022/03/06 02:25:28;;;;;;;4.28;3.97;;;;;;;-1.06;100.00;102075.34;5028034;28;20064;-77
2022/03/06 02:28:05;;;;;;;4.82;4.53;;;;;;;-1.14;100.00;102070.00;5039730;28;20053;-77
2022/03/06 02:30:37;;;;;;;4.97;4.68;;;;;;;-1.17;100.00;102072.97;5038483;28;20429;-77
2022/03/06 02:33:12;;;;;;;5.57;5.18;;;;;;;-1.10;100.00;102069.47;5019761;28;20038;-77
2022/03/06 02:35:45;;;;;;;5.00;4.68;;;;;;;-1.10;100.00;102061.47;5027102;28;20143;-76
2022/03/06 02:38:19;;;;;;;4.57;4.28;;;;;;;-1.05;100.00;102055.59;5024239;28;20060;-77
2022/03/06 02:40:48;;;;;;;4.88;4.57;;;;;;;-1.02;100.00;102065.97;5030762;28;20048;-79
2022/03/06 02:43:21;;;;;;;5.07;4.72;;;;;;;-1.00;100.00;102055.94;5025007;28;20049;-77
2022/03/06 02:45:54;;;;;;;5.40;5.00;;;;;;;-1.05;100.00;102050.25;5015892;28;20061;-78
2022/03/06 02:48:24;;;;;;;5.50;5.10;;;;;;;-0.98;100.00;102051.28;5022284;28;20053;-76
2022/03/06 02:50:57;;;;;;;5.53;5.13;;;;;;;-0.98;100.00;102050.44;5026057;28;20057;-77
2022/03/06 02:53:31;;;;;;;6.05;5.65;;;;;;;-0.98;100.00;102047.75;5026219;28;20056;-78
2022/03/06 02:56:00;;;;;;;6.93;6.43;;;;;;;-1.01;100.00;102040.09;5036926;28;20068;-77
2022/03/06 02:58:33;;;;;;;7.05;6.55;;;;;;;-0.99;100.00;102040.75;5033405;28;20052;-78
2022/03/06 03:01:08;;;;;;;6.72;6.22;;;;;;;-0.98;100.00;102040.59;5026087;28;20394;-78
2022/03/06 03:03:44;;;;;;;5.88;5.47;;;;;;;-0.98;100.00;102037.06;5037444;28;20386;-77
2022/03/06 03:06:12;;;;;;;7.07;6.57;;;;;;;-0.98;100.00;102042.41;5031099;28;20054;-77
2022/03/06 03:08:47;;;;;;;6.97;6.47;;;;;;;-0.95;100.00;102034.03;5033270;28;20037;-77
2022/03/06 03:11:20;;;;;;;7.25;6.75;;;;;;;-0.96;100.00;102035.91;5021537;28;20570;-77
2022/03/06 03:13:53;;;;;;;7.03;6.53;;;;;;;-0.99;100.00;102038.91;5023827;28;20049;-76
2022/03/06 03:16:26;;;;;;;5.97;5.57;;;;;;;-1.01;100.00;102040.91;5026122;28;20050;-81
2022/03/06 03:18:55;;;;;;;6.20;5.80;;;;;;;-1.06;100.00;102044.09;5024002;28;20056;-81
2022/03/06 03:21:28;;;;;;;5.95;5.55;;;;;;;-1.09;100.00;102049.78;5043724;28;20044;-81
2022/03/06 03:23:57;;;;;;;5.30;4.90;;;;;;;-1.10;100.00;102041.94;5021129;28;20046;-81
2022/03/06 03:26:30;;;;;;;5.55;5.15;;;;;;;-1.08;100.00;102045.25;5040871;28;20482;-81
2022/03/06 03:29:04;;;;;;;5.10;4.75;;;;;;;-1.03;100.00;102041.09;5034136;28;20060;-81
2022/03/06 03:31:37;;;;;;;5.93;5.53;;;;;;;-0.99;100.00;102044.25;5032557;28;20057;-81
2022/03/06 03:34:10;;;;;;;6.03;5.63;;;;;;;-1.01;100.00;102048.91;5031324;28;20052;-81
2022/03/06 03:36:38;;;;;;;5.65;5.25;;;;;;;-1.04;100.00;102054.63;5029822;28;20048;-81
2022/03/06 03:39:13;;;;;;;5.90;5.50;;;;;;;-1.02;100.00;102049.94;5033448;28;20049;-81
2022/03/06 03:41:46;;;;;;;5.65;5.25;;;;;;;-0.98;100.00;102056.63;5027817;28;20057;-81
2022/03/06 03:44:19;;;;;;;5.53;5.13;;;;;;;-0.98;100.00;102061.13;5033845;28;20046;-81
2022/03/06 03:46:52;;;;;;;5.28;4.88;;;;;;;-0.95;100.00;102058.94;5023067;28;20057;-82
2022/03/06 03:49:25;;;;;;;4.90;4.60;;;;;;;-1.01;100.00;102054.28;5032153;28;20054;-81
2022/03/06 03:51:59;;;;;;;5.05;4.72;;;;;;;-0.98;100.00;102058.44;5031237;28;20501;-81
2022/03/06 03:54:28;;;;;;;5.30;4.90;;;;;;;-1.01;100.00;102064.97;5034589;28;20046;-81
2022/03/06 03:56:56;;;;;;;4.68;4.38;;;;;;;-0.99;100.00;102070.97;5036696;28;20050;-81
2022/03/06 03:59:29;;;;;;;4.43;4.13;;;;;;;-1.03;100.00;102065.13;5039037;28;20053;-81
2022/03/06 04:02:02;;;;;;;4.63;4.32;;;;;;;-0.98;100.00;102069.13;5030334;28;20394;-81
2022/03/06 04:04:36;;;;;;;5.32;4.93;;;;;;;-1.02;100.00;102074.00;5029087;28;20045;-81
2022/03/06 04:07:09;;;;;;;5.07;4.75;;;;;;;-1.04;100.00;102066.16;5032589;28;20426;-81
2022/03/06 04:09:43;;;;;;;4.70;4.40;;;;;;;-1.03;100.00;102066.97;5025265;28;20065;-81
2022/03/06 04:12:11;;;;;;;4.70;4.40;;;;;;;-1.01;100.00;102053.44;5031237;28;20481;-81
2022/03/06 04:14:44;;;;;;;5.05;4.70;;;;;;;-1.04;100.00;102051.94;5034753;28;20056;-81
2022/03/06 04:17:12;;;;;;;4.47;4.18;;;;;;;-1.08;100.00;102063.97;5026925;28;20512;-81
2022/03/06 04:19:46;;;;;;;5.13;4.78;;;;;;;-1.15;100.00;102053.13;5039079;28;20049;-81
2022/03/06 04:22:19;;;;;;;4.55;4.25;;;;;;;-1.05;100.00;102060.94;5031979;28;20049;-81
2022/03/06 04:24:48;;;;;;;4.72;4.43;;;;;;;-1.06;100.00;102053.97;5030133;28;20057;-81
2022/03/06 04:27:22;;;;;;;4.35;4.05;;;;;;;-1.06;100.00;102059.31;5033179;28;20057;-81
2022/03/06 04:29:55;;;;;;;4.20;3.90;;;;;;;-1.01;100.00;102062.28;5033697;28;20670;-81
2022/03/06 04:32:28;;;;;;;4.68;4.38;;;;;;;-1.05;100.00;102060.94;5033839;28;20053;-81
2022/03/06 04:35:01;;;;;;;4.70;4.40;;;;;;;-1.14;100.00;102061.97;5032393;28;20394;-81
2022/03/06 04:37:34;;;;;;;4.45;4.15;;;;;;;-1.12;100.00;102057.28;5031173;28;20060;-81
2022/03/06 04:40:10;;;;;;;4.82;4.53;;;;;;;-1.05;100.00;102074.31;5029323;28;20037;-81
2022/03/06 04:42:43;;;;;;;5.35;4.95;;;;;;;-1.04;100.00;102067.97;5024609;28;20042;-81
2022/03/06 04:45:12;;;;;;;4.97;4.68;;;;;;;-1.06;100.00;102073.50;5027725;28;20050;-80
2022/03/06 04:47:45;;;;;;;4.25;3.95;;;;;;;-1.09;100.00;102072.97;5030873;28;20049;-81
2022/03/06 04:50:18;;;;;;;4.55;4.25;;;;;;;-1.07;100.00;102073.66;5027705;28;20482;-81
2022/03/06 04:52:51;;;;;;;4.38;4.07;;;;;;;-1.03;100.00;102075.00;5032374;28;20050;-81
2022/03/06 04:55:26;;;;;;;4.38;4.07;;;;;;;-1.05;100.00;102071.63;5034294;28;20049;-81
2022/03/06 04:57:59;;;;;;;4.65;4.35;;;;;;;-1.01;100.00;102072.16;5042616;28;20049;-81
2022/03/06 05:00:32;;;;;;;5.30;4.90;;;;;;;-1.05;100.00;102074.31;5035250;28;20050;-81
2022/03/06 05:03:05;;;;;;;5.35;4.95;;;;;;;-1.04;100.00;102076.84;5024226;28;20049;-82
2022/03/06 05:05:34;;;;;;;4.72;4.43;;;;;;;-1.02;100.00;102076.66;5026519;28;20057;-81
2022/03/06 05:08:07;;;;;;;4.85;4.55;;;;;;;-0.99;100.00;102081.66;5024150;28;20042;-81
2022/03/06 05:10:36;;;;;;;4.88;4.57;;;;;;;-1.07;100.00;102069.13;5032359;28;20044;-81
2022/03/06 05:13:10;;;;;;;4.65;4.35;;;;;;;-1.08;100.00;102080.84;5030181;28;20386;-81
2022/03/06 05:15:38;;;;;;;4.97;4.68;;;;;;;-0.98;100.00;102082.50;5030679;28;20053;-81
2022/03/06 05:18:07;;;;;;;4.55;4.25;;;;;;;-1.02;100.00;102076.66;5029437;28;20064;-81
2022/03/06 05:20:40;;;;;;;4.68;4.38;;;;;;;-1.15;100.00;102060.31;5026121;28;20497;-81
2022/03/06 05:23:13;;;;;;;4.40;4.10;;;;;;;-1.06;100.00;102070.81;5030531;28;20045;-81
2022/03/06 05:25:43;;;;;;;4.97;4.68;;;;;;;-1.05;100.00;102066.28;5030986;28;20056;-81
2022/03/06 05:28:13;;;;;;;4.60;4.30;;;;;;;-1.12;100.00;102055.47;5027770;28;20057;-81
2022/03/06 05:30:42;;;;;;;4.78;4.47;;;;;;;-1.04;100.00;102060.81;5029409;28;20071;-81
2022/03/06 05:33:10;;;;;;;4.50;4.20;;;;;;;-1.10;100.00;102063.31;5030234;28;20049;-81
2022/03/06 05:35:43;;;;;;;4.50;4.20;;;;;;;-1.08;100.00;102061.28;5029169;28;20057;-80
2022/03/06 05:38:16;;;;;;;4.80;4.50;;;;;;;-1.10;100.00;102058.78;5040258;28;20485;-81
2022/03/06 05:40:51;;;;;;;4.75;4.45;;;;;;;-1.08;100.00;102063.97;5028450;28;20064;-81
2022/03/06 05:43:19;;;;;;;4.53;4.22;;;;;;;-1.06;100.00;102073.50;5027337;28;20069;-81
2022/03/06 05:45:52;;;;;;;5.40;5.00;;;;;;;-1.05;100.00;102064.47;5023451;28;20056;-81
2022/03/06 05:48:25;;;;;;;5.32;4.93;;;;;;;-0.99;100.00;102072.84;5032153;28;20045;-81
2022/03/06 05:50:53;;;;;;;4.40;4.10;;;;;;;-1.07;100.00;102066.47;5022750;28;20049;-81
2022/03/06 05:53:22;;;;;;;4.80;4.50;;;;;;;-0.95;100.00;102077.66;5028420;28;20538;-81
2022/03/06 05:55:56;;;;;;;4.57;4.28;;;;;;;-1.00;100.00;102066.63;5019466;28;20065;-81
2022/03/06 05:58:24;;;;;;;4.45;4.15;;;;;;;-0.95;100.00;102074.13;5023463;28;20817;-81
2022/03/06 06:00:57;;;;;;;4.70;4.40;;;;;;;-0.95;100.00;102079.47;5021354;28;20049;-81
2022/03/06 06:03:30;;;;;;;4.90;4.60;;;;;;;-1.01;100.00;102072.97;5040324;28;20046;-81
2022/03/06 06:05:58;;;;;;;4.55;4.25;;;;;;;-1.03;100.00;102069.66;5026920;28;20057;-82
2022/03/06 06:08:31;;;;;;;4.90;4.60;;;;;;;-1.02;100.00;102084.69;5028853;28;20053;-81
2022/03/06 06:11:01;;;;;;;4.85;4.55;;;;;;;-0.89;100.00;102084.16;5024771;28;20049;-81
2022/03/06 06:13:29;;;;;;;4.40;4.10;;;;;;;-0.96;100.00;102091.19;5014904;28;20056;-81
2022/03/06 06:15:58;;;;;;;4.97;4.68;;;;;;;-0.92;100.00;102082.66;5028827;28;20551;-81
2022/03/06 06:18:31;;;;;;;4.45;4.15;;;;;;;-0.96;100.00;102083.19;5023375;28;20057;-81
2022/03/06 06:21:04;;;;;;;4.85;4.55;;;;;;;-1.00;100.00;102069.31;5022003;28;20049;-81
2022/03/06 06:23:32;;;;;;;4.82;4.53;;;;;;;-0.87;100.00;102085.66;5020188;28;20434;-81
2022/03/06 06:26:07;;;;;;;4.53;4.22;;;;;;;-0.88;100.00;102085.84;5023018;28;20049;-81
2022/03/06 06:28:40;;;;;;;4.22;3.92;;;;;;;-0.91;100.00;102095.03;5031560;28;20048;-81
2022/03/06 06:31:13;;;;;;;3.80;3.60;;;;;;;-0.89;100.00;102090.34;5030399;28;20053;-81
2022/03/06 06:33:46;;;;;;;4.00;3.70;;;;;;;-0.81;100.00;102092.16;5019901;28;20049;-81
2022/03/06 06:36:19;;;;;;;4.28;3.97;;;;;;;-0.83;100.00;102099.50;5028101;28;20049;-81
2022/03/06 06:38:53;;;;;;;4.05;3.75;;;;;;;-0.75;100.00;102099.50;5015533;28;20060;-81
2022/03/06 06:41:27;;;;;;;4.18;3.88;;;;;;;-0.88;100.00;102096.53;5015898;28;20049;-81
2022/03/06 06:43:55;;;;;;;4.35;4.05;;;;;;;-0.81;100.00;102110.06;5027540;28;20052;-82
2022/03/06 06:46:29;;;;;;;4.43;4.13;;;;;;;-0.80;100.00;102106.34;5028772;28;20049;-81
2022/03/06 06:49:03;;;;;;;4.00;3.70;;;;;;;-0.80;100.00;102109.03;5022970;28;20395;-81
2022/03/06 06:51:38;;;;;;;4.22;3.92;;;;;;;-0.76;100.00;102102.34;5033514;28;20170;-82
2022/03/06 06:54:06;;;;;;;4.38;4.07;;;;;;;-0.80;100.00;102109.03;5032124;28;20061;-81
2022/03/06 06:56:41;;;;;;;4.68;4.38;;;;;;;-0.80;100.00;102112.56;5019188;28;20056;-81
2022/03/06 06:59:14;;;;;;;3.88;3.63;;;;;;;-0.74;100.00;102113.72;5022341;28;20076;-81
2022/03/06 07:01:42;;;;;;;4.03;3.72;;;;;;;-0.65;100.00;102115.34;5023125;28;20049;-81
2022/03/06 07:04:17;;;;;;;4.10;3.80;;;;;;;-0.64;100.00;102116.22;5033899;28;20065;-81
2022/03/06 07:06:50;;;;;;;4.30;4.00;;;;;;;-0.75;100.00;102115.53;5027998;28;20053;-81
2022/03/06 07:09:18;;;;;;;3.60;3.40;;;;;;;-0.73;100.00;102115.41;5041544;28;20503;-81
2022/03/06 07:11:52;;;;;;;3.70;3.50;;;;;;;-0.73;100.00;102108.19;5023550;28;20045;-81
2022/03/06 07:14:20;;;;;;;3.88;3.60;;;;;;;-0.69;100.00;102106.84;5027446;28;20069;-82
2022/03/06 07:16:49;;;;;;;3.60;3.40;;;;;;;-0.58;100.00;102115.50;5014712;28;20054;-81
2022/03/06 07:19:22;;;;;;;3.70;3.50;;;;;;;-0.60;100.00;102117.53;5021707;28;20049;-81
2022/03/06 07:21:55;;;;;;;3.58;3.38;;;;;;;-0.49;100.00;102119.03;5014799;28;20049;-81
2022/03/06 07:24:23;;;;;;;3.10;2.90;;;;;;;-0.54;100.00;102124.88;5024822;28;20057;-82
2022/03/06 07:26:58;;;;;;;3.47;3.28;;;;;;;-0.39;100.00;102122.34;5019511;28;20057;-81
2022/03/06 07:29:31;;;;;;;3.10;2.90;;;;;;;-0.41;100.00;102127.84;5022644;28;20054;-81
2022/03/06 07:32:05;;;;;;;3.50;3.30;;;;;;;-0.45;100.00;102133.72;5027218;28;20045;-81
2022/03/06 07:34:38;;;;;;;3.00;2.80;;;;;;;-0.41;100.00;102137.72;5026811;28;20943;-81
2022/03/06 07:37:12;;;;;;;3.40;3.20;;;;;;;-0.53;100.00;102134.56;5025440;28;20053;-81
2022/03/06 07:39:45;;;;;;;3.03;2.83;;;;;;;-0.47;100.00;102141.06;5022768;28;20665;-81
2022/03/06 07:42:19;;;;;;;2.85;2.65;;;;;;;-0.42;100.00;102139.56;5017219;28;20058;-81
2022/03/06 07:44:52;;;;;;;3.10;2.90;;;;;;;-0.32;100.00;102146.56;5020995;28;20041;-81
2022/03/06 07:47:25;;;;;;;2.88;2.67;;;;;;;-0.32;100.00;102133.19;5026745;28;20054;-81
2022/03/06 07:49:59;;;;;;;2.70;2.50;;;;;;;-0.32;100.00;102144.72;5025579;28;20045;-81
2022/03/06 07:52:32;;;;;;;2.65;2.50;;;;;;;-0.16;100.00;102146.50;5028998;28;20056;-81
2022/03/06 07:55:01;;;;;;;2.75;2.55;;;;;;;-0.27;100.00;102128.16;5025459;28;20426;-81
2022/03/06 07:57:30;;;;;;;2.78;2.58;;;;;;;-0.11;100.00;102151.34;5030201;28;20049;-81
2022/03/06 08:00:04;;;;;;;2.70;2.50;;;;;;;-0.19;100.00;102138.84;5018641;28;20061;-82
2022/03/06 08:02:36;;;;;;;2.40;2.30;;;;;;;-0.20;100.00;102145.19;5028892;28;20510;-82
2022/03/06 08:05:06;;;;;;;2.20;2.10;;;;;;;-0.13;100.00;102142.66;5025919;28;20076;-81
2022/03/06 08:07:39;;;;;;;2.25;2.15;;;;;;;0.08;100.00;102142.06;5020824;28;20057;-82
2022/03/06 08:10:12;;;;;;;2.17;2.08;;;;;;;0.06;100.00;102136.91;5022647;28;20400;-81
2022/03/06 08:12:48;;;;;;;2.50;2.40;;;;;;;0.08;100.00;102139.41;5023940;28;20076;-81
2022/03/06 08:15:16;;;;;;;2.00;1.90;;;;;;;0.19;100.00;102140.84;5024252;28;20483;-81
2022/03/06 08:17:45;;;;;;;2.20;2.10;;;;;;;0.14;100.00;102141.41;5044629;28;20505;-81
2022/03/06 08:20:13;;;;;;;2.17;2.08;;;;;;;0.17;100.00;102144.53;5017766;28;20064;-81
2022/03/06 08:22:46;;;;;;;1.80;1.70;;;;;;;0.26;100.00;102142.69;5020889;28;20048;-80
2022/03/06 08:25:20;;;;;;;2.00;1.90;;;;;;;0.27;100.00;102146.19;5025580;28;20072;-81
2022/03/06 08:27:54;;;;;;;1.58;1.48;;;;;;;0.21;100.00;102144.19;5027739;28;20049;-80
2022/03/06 08:30:28;;;;;;;1.70;1.60;;;;;;;0.17;100.00;102147.22;5024543;28;20084;-81
2022/03/06 08:33:01;;;;;;;1.50;1.40;;;;;;;0.42;100.00;102149.78;5030954;28;20049;-82
2022/03/06 08:35:34;;;;;;;1.45;1.40;;;;;;;0.54;100.00;102160.09;5030068;28;20080;-82
2022/03/06 08:38:07;;;;;;;1.27;1.27;;;;;;;0.55;100.00;102156.41;5031456;28;20064;-81
2022/03/06 08:40:35;;;;;;;1.40;1.30;;;;;;;0.60;100.00;102157.53;5044430;28;20053;-82
2022/03/06 08:43:05;;;;;;;1.27;1.27;;;;;;;0.63;100.00;102161.72;5025758;28;20049;-84
2022/03/06 08:45:33;;;;;;;1.10;1.10;;;;;;;0.71;100.00;102160.84;5022901;28;20057;-82
2022/03/06 08:48:07;;;;;;;1.00;1.00;;;;;;;0.64;100.00;102158.84;5023516;28;20045;-83
2022/03/06 08:50:40;;;;;;;0.90;0.90;;;;;;;0.63;100.00;102159.03;5022089;28;20053;-82
2022/03/06 08:53:13;;;;;;;1.00;1.00;;;;;;;0.63;100.00;102151.81;5021711;28;20049;-83
2022/03/06 08:55:46;;;;;;;0.90;0.90;;;;;;;0.52;100.00;102152.22;5025577;28;20517;-83
2022/03/06 08:58:21;;;;;;;0.80;0.80;;;;;;;0.44;100.00;102158.47;5023720;28;20057;-81
2022/03/06 09:00:55;;;;;;;0.80;0.80;;;;;;;0.41;100.00;102155.31;5023842;28;20060;-84
2022/03/06 09:03:28;;;;;;;0.75;0.75;;;;;;;0.39;100.00;102160.84;5019571;28;20041;-82
2022/03/06 09:05:56;;;;;;;0.80;0.80;;;;;;;0.39;100.00;102158.16;5027517;28;20398;-81
2022/03/06 09:08:24;;;;;;;0.60;0.60;;;;;;;0.54;100.00;102160.94;5018545;28;20045;-82
2022/03/06 09:10:52;;;;;;;0.80;0.80;;;;;;;0.51;100.00;102150.53;5022606;28;20407;-82
2022/03/06 09:13:27;;;;;;;0.57;0.57;;;;;;;0.45;100.00;102137.88;5023141;28;20061;-86
2022/03/06 09:16:00;;;;;;;0.60;0.60;;;;;;;0.62;100.00;102130.56;5024436;28;20054;-82
2022/03/06 09:18:33;;;;;;;0.60;0.60;;;;;;;0.66;100.00;102140.78;5022029;28;20417;-85
2022/03/06 09:21:02;;;;;;;0.52;0.52;;;;;;;0.55;100.00;102127.75;5027025;28;20053;-84
2022/03/06 09:23:30;;;;;;;0.40;0.40;;;;;;;0.65;100.00;102143.63;5030863;28;20071;-84
2022/03/06 09:25:59;;;;;;;0.40;0.40;;;;;;;0.76;100.00;102145.88;5030004;28;20044;-83
2022/03/06 09:28:28;;;;;;;0.40;0.40;;;;;;;0.89;100.00;102142.59;5024343;28;20053;-83
2022/03/06 09:30:56;;;;;;;0.50;0.50;;;;;;;0.96;100.00;102138.19;5022165;28;20363;-83
2022/03/06 09:33:24;;;;;;;0.43;0.43;;;;;;;1.13;100.00;102152.31;5024427;28;20494;-84
2022/03/06 09:35:52;;;;;;;0.40;0.40;;;;;;;1.01;100.00;102138.50;5031854;28;20061;-83
2022/03/06 09:38:20;;;;;;;0.40;0.40;;;;;;;1.38;100.00;102135.16;5028446;28;20053;-85
2022/03/06 09:40:55;;;;;;;0.50;0.50;;;;;;;1.52;100.00;102150.44;5022276;28;20906;-84
2022/03/06 09:43:30;;;;;;;0.40;0.40;;;;;;;1.20;100.00;102155.06;5023118;28;20417;-85
2022/03/06 09:46:06;;;;;;;0.30;0.30;;;;;;;0.93;100.00;102146.59;5018766;28;20048;-85
2022/03/06 09:48:39;;;;;;;0.35;0.35;;;;;;;0.83;100.00;102148.69;5023989;28;20146;-84
2022/03/06 09:51:07;;;;;;;0.30;0.30;;;;;;;0.80;100.00;102159.75;5023713;28;20379;-83
2022/03/06 09:53:40;;;;;;;0.40;0.40;;;;;;;0.89;100.00;102149.81;5019944;28;20509;-84
2022/03/06 09:56:13;;;;;;;0.30;0.30;;;;;;;1.07;100.00;102157.56;5028413;28;20048;-88
2022/03/06 09:58:44;;;;;;;0.40;0.40;;;;;;;1.18;100.00;102155.25;5031113;28;20049;-84
2022/03/06 10:01:17;;;;;;;0.40;0.40;;;;;;;1.27;100.00;102169.47;5027734;28;20046;-84
2022/03/06 10:03:50;;;;;;;0.40;0.40;;;;;;;1.33;100.00;102167.91;5024121;28;20061;-86
2022/03/06 10:06:24;;;;;;;0.30;0.30;;;;;;;1.38;100.00;102168.16;5021653;28;20062;-84
2022/03/06 10:09:04;;;;;;;0.30;0.30;;;;;;;1.41;100.00;102165.13;5017771;28;20054;-83
2022/03/06 10:11:39;;;;;;;0.40;0.40;;;;;;;1.43;100.00;102170.31;5022835;28;20045;-83
2022/03/06 10:14:33;;;;;;;0.40;0.40;;;;;;;1.37;100.00;102166.50;5032097;28;20060;-83
2022/03/06 10:17:13;;;;;;;0.30;0.30;;;;;;;1.39;100.00;102167.16;5025216;28;20053;-82
2022/03/06 10:19:53;;;;;;;0.30;0.30;;;;;;;1.42;100.00;102161.41;5024094;28;20045;-82
2022/03/06 10:22:28;;;;;;;0.30;0.30;;;;;;;1.43;100.00;102175.69;5022426;28;20046;-83
2022/03/06 10:25:08;;;;;;;0.40;0.40;;;;;;;1.21;100.00;102143.34;5029317;28;20045;-84
2022/03/06 10:27:45;;;;;;;;;;;;;;;1.55;100.00;102170.69;5017627;28;20053;-82
2022/03/06 10:30:31;;;;;;;0.30;0.30;;;;;;;1.35;100.00;102157.81;5029702;28;19925;-84
2022/03/06 10:33:07;;;;;;;0.30;0.30;;;;;;;1.50;100.00;102163.19;5029073;28;20033;-83
2022/03/06 10:35:42;;;;;;;0.30;0.30;;;;;;;1.71;100.00;102162.47;5042884;28;20053;-83
2022/03/06 10:38:22;;;;;;;0.40;0.40;;;;;;;2.02;100.00;102156.09;5026620;28;20053;-83
2022/03/06 10:40:58;;;;;;;0.30;0.30;;;;;;;2.06;100.00;102156.53;5030570;28;20475;-83
2022/03/06 10:43:33;;;;;;;0.38;0.38;;;;;;;2.20;100.00;102148.47;5031000;28;20509;-84
2022/03/06 10:46:10;;;;;;;0.40;0.40;;;;;;;2.33;100.00;102150.47;5025927;28;20061;-84
2022/03/06 10:48:45;;;;;;;0.40;0.40;;;;;;;2.52;100.00;102154.44;5027544;28;20045;-81
2022/03/06 10:51:14;;;;;;;0.38;0.38;;;;;;;2.83;100.00;102147.09;5023966;28;20076;-83
2022/03/06 10:53:51;;;;;;;0.28;0.28;;;;;;;2.68;100.00;102148.00;5030179;28;20540;-84
2022/03/06 10:56:20;;;;;;;0.30;0.30;;;;;;;2.45;100.00;102132.03;5029087;28;20409;-82
2022/03/06 10:58:49;;;;;;;0.40;0.40;;;;;;;2.57;100.00;102145.81;5019742;28;20038;-83
2022/03/06 11:01:24;;;;;;;0.20;0.20;;;;;;;2.38;100.00;102144.56;5026770;28;20053;-85
2022/03/06 11:03:59;;;;;;;0.20;0.20;;;;;;;2.70;100.00;102145.13;5024515;28;20110;-81
2022/03/06 11:06:39;;;;;;;0.35;0.35;;;;;;;3.13;100.00;102130.81;5020658;28;20045;-83
2022/03/06 11:09:11;;;;;;;0.30;0.30;;;;;;;3.19;100.00;102141.66;5028070;28;20056;-83
2022/03/06 11:11:46;;;;;;;0.20;0.20;;;;;;;2.79;100.00;102143.97;5026212;28;20409;-85
2022/03/06 11:14:20;;;;;;;0.30;0.30;;;;;;;2.28;100.00;102142.19;5025331;28;20080;-82
2022/03/06 11:16:49;;;;;;;0.40;0.40;;;;;;;2.06;100.00;102149.34;5026779;28;20425;-83
2022/03/06 11:19:28;;;;;;;0.20;0.20;;;;;;;2.06;100.00;102151.19;5028036;28;20049;-83
2022/03/06 11:22:03;;;;;;;0.20;0.20;;;;;;;1.80;100.00;102156.00;5029469;28;20038;-83
2022/03/06 11:24:38;;;;;;;0.30;0.30;;;;;;;1.94;100.00;102154.34;5053617;28;20057;-81
2022/03/06 11:27:40;;;;;;;0.30;0.30;;;;;;;1.83;100.00;102157.50;5027771;28;20050;-81
2022/03/06 11:30:15;;;;;;;0.30;0.30;;;;;;;1.97;100.00;102150.44;5034668;28;20486;-83
2022/03/06 11:32:47;;;;;;;0.30;0.30;;;;;;;1.96;100.00;102138.91;5031872;28;20049;-83
2022/03/06 11:35:20;;;;;;;0.30;0.30;;;;;;;2.20;100.00;102137.72;5030521;28;20037;-83
2022/03/06 11:37:56;;;;;;;0.30;0.30;;;;;;;2.17;100.00;102146.19;5035579;28;20486;-83
2022/03/06 11:40:51;;;;;;;0.20;0.20;;;;;;;2.35;100.00;102136.88;5035084;28;20056;-82
2022/03/06 11:43:33;;;;;;;0.20;0.20;;;;;;;2.12;100.00;102115.53;5030626;28;20054;-83